Time;durP1;ratioP1;P1;durP2;ratioP2;P2;SDS_P1;SDS_P2;PMS_P1;PMS_P2;Temp;Humidity;BMP_temperature;BMP_pressure;BME280_temperature;BME280_humidity;BME280_pressure;Samples;Min_cycle;Max_cycle;Signal;HPM_P1;HPM_P2
2024/01/22 00:01:25;;;;;;;5.90;1.55;;;2.70;99.90;;;1.95;75.41;97933.13;4966418;28;21337;-35
2024/01/22 00:03:51;;;;;;;3.20;1.35;;;2.80;99.90;;;1.91;77.90;97914.03;4968516;28;20440;-35
2024/01/22 00:06:16;;;;;;;7.45;1.50;;;2.80;99.90;;;1.93;74.17;97919.25;4951652;28;20491;-36
2024/01/22 00:08:42;;;;;;;2.42;1.17;;;2.80;99.90;;;1.86;76.01;97920.06;4970089;28;20038;-36
2024/01/22 00:11:08;;;;;;;3.80;1.45;;;2.80;99.90;;;1.81;76.16;97917.44;4974343;28;20061;-36
2024/01/22 00:13:34;;;;;;;3.13;1.60;;;2.70;99.90;;;1.91;72.58;97908.81;4974418;28;20041;-38
2024/01/22 00:15:59;;;;;;;2.53;1.30;;;2.70;99.90;;;1.85;75.64;97913.13;4973721;28;20065;-37
2024/01/22 00:18:25;;;;;;;2.95;1.15;;;2.70;99.90;;;1.75;76.89;97908.72;4965481;28;20753;-37
2024/01/22 00:20:51;;;;;;;3.20;1.48;;;2.70;99.90;;;1.68;78.19;97907.81;4969256;28;20030;-36
2024/01/22 00:23:16;;;;;;;5.25;1.40;;;2.60;99.90;;;1.63;78.09;97902.56;4972717;28;20087;-36
2024/01/22 00:25:42;;;;;;;2.83;1.17;;;2.60;99.90;;;1.62;80.64;97893.06;4977832;28;20038;-36
2024/01/22 00:28:08;;;;;;;3.03;1.30;;;2.50;99.90;;;1.59;80.99;97885.22;4973229;28;20546;-36
2024/01/22 00:30:34;;;;;;;3.20;1.40;;;2.50;99.90;;;1.57;81.33;97880.88;4970215;28;20365;-36
2024/01/22 00:32:59;;;;;;;1.80;0.95;;;2.50;99.90;;;1.47;84.17;97867.84;4949811;28;20089;-36
2024/01/22 00:35:25;;;;;;;1.60;0.90;;;2.40;99.90;;;1.49;86.05;97875.63;4966501;28;20022;-36
2024/01/22 00:37:51;;;;;;;2.03;1.17;;;2.40;99.90;;;1.42;86.01;97866.94;4969013;28;20034;-36
2024/01/22 00:40:17;;;;;;;2.72;1.00;;;2.40;99.90;;;1.34;88.47;97868.59;4957922;28;20041;-36
2024/01/22 00:42:43;;;;;;;2.70;1.42;;;2.30;99.90;;;1.22;92.18;97861.59;4968574;28;20036;-36
2024/01/22 00:45:10;;;;;;;1.67;1.10;;;2.30;99.90;;;1.18;93.31;97861.53;4969560;28;20341;-36
2024/01/22 00:47:36;;;;;;;2.25;1.30;;;2.20;99.90;;;1.12;94.27;97862.38;4971497;28;20034;-36
2024/01/22 00:50:02;;;;;;;2.35;1.20;;;2.10;99.90;;;1.08;94.05;97865.81;4970256;28;20038;-36
2024/01/22 00:52:28;;;;;;;1.88;1.25;;;2.00;99.90;;;1.01;95.34;97856.22;4973577;28;20050;-36
2024/01/22 00:54:53;;;;;;;1.90;1.20;;;2.00;99.90;;;0.90;96.64;97850.94;4978917;28;20026;-36
2024/01/22 00:57:19;;;;;;;3.33;1.30;;;1.90;99.90;;;0.85;97.00;97840.50;4978257;28;20084;-36
2024/01/22 00:59:45;;;;;;;3.20;1.08;;;1.80;99.90;;;0.80;98.18;97831.81;4979499;28;20033;-36
2024/01/22 01:02:10;;;;;;;2.00;1.20;;;1.80;99.90;;;0.73;100.00;97817.03;4976236;28;20546;-35
2024/01/22 01:04:36;;;;;;;3.58;1.52;;;1.70;99.90;;;0.66;100.00;97800.50;4972427;28;20046;-36
2024/01/22 01:07:02;;;;;;;2.15;1.30;;;1.60;99.90;;;0.62;100.00;97785.78;4980645;28;20399;-36
2024/01/22 01:09:28;;;;;;;3.13;1.38;;;1.60;99.90;;;0.59;100.00;97801.31;4975842;28;20068;-36
2024/01/22 01:11:53;;;;;;;2.65;1.20;;;1.50;99.90;;;0.55;99.77;97794.38;4971122;28;20096;-36
2024/01/22 01:14:19;;;;;;;4.20;1.58;;;1.50;99.90;;;0.53;98.44;97807.31;4966594;28;20034;-36
2024/01/22 01:16:45;;;;;;;3.53;1.50;;;1.50;99.90;;;0.48;98.46;97815.94;4965878;28;20031;-36
2024/01/22 01:19:10;;;;;;;4.40;1.38;;;1.50;99.90;;;0.47;96.60;97824.59;4967418;28;20030;-36
2024/01/22 01:21:39;;;;;;;2.72;1.20;;;1.40;99.90;;;0.44;97.64;97820.22;4975803;28;20038;-37
2024/01/22 01:24:05;;;;;;;2.40;1.30;;;1.40;99.90;;;0.35;100.00;97820.13;4969514;28;20034;-37
2024/01/22 01:26:30;;;;;;;2.72;1.67;;;1.30;99.90;;;0.25;100.00;97813.09;4941534;28;20496;-37
2024/01/22 01:28:56;;;;;;;3.35;1.55;;;1.30;99.90;;;0.13;100.00;97812.13;4968187;28;20057;-37
2024/01/22 01:31:22;;;;;;;3.38;1.50;;;1.20;99.90;;;0.08;100.00;97811.19;4966852;28;20629;-36
2024/01/22 01:33:48;;;;;;;2.40;1.30;;;1.10;99.90;;;-0.02;100.00;97810.25;4969359;28;20286;-36
2024/01/22 01:36:14;;;;;;;3.08;1.33;;;1.00;99.90;;;-0.10;100.00;97811.00;4964691;28;20380;-36
2024/01/22 01:38:39;;;;;;;2.00;1.40;;;0.90;99.90;;;-0.16;100.00;97800.53;4968910;28;20040;-36
2024/01/22 01:41:05;;;;;;;3.10;1.50;;;0.80;99.90;;;-0.23;100.00;97792.69;4963769;28;20403;-35
2024/01/22 01:43:31;;;;;;;1.98;1.25;;;0.80;99.90;;;-0.25;100.00;97797.00;4965974;28;20030;-36
2024/01/22 01:45:56;;;;;;;2.55;1.50;;;0.80;99.90;;;-0.30;100.00;97783.09;4976277;28;20237;-36
2024/01/22 01:48:22;;;;;;;5.22;1.42;;;0.70;99.90;;;-0.35;100.00;97791.69;4966067;28;20551;-36
2024/01/22 01:50:49;;;;;;;4.53;1.52;;;0.70;99.90;;;-0.37;100.00;97802.03;4969931;28;20186;-36
2024/01/22 01:53:15;;;;;;;4.03;1.40;;;0.70;99.90;;;-0.40;100.00;97808.03;4954086;28;20081;-35
2024/01/22 01:55:41;;;;;;;2.63;1.38;;;0.60;99.90;;;-0.37;100.00;97803.75;4971998;28;20786;-35
2024/01/22 01:58:07;;;;;;;5.63;1.58;;;0.60;99.90;;;-0.37;100.00;97807.22;4953569;28;20037;-35
2024/01/22 02:00:33;;;;;;;2.55;1.50;;;0.60;99.90;;;-0.39;100.00;97801.13;4975192;28;21108;-36
2024/01/22 02:02:58;;;;;;;2.63;1.48;;;0.60;99.90;;;-0.37;100.00;97796.84;4971065;28;20049;-36
2024/01/22 02:05:25;;;;;;;2.38;1.48;;;0.60;99.90;;;-0.35;100.00;97792.53;4974145;28;20085;-36
2024/01/22 02:07:50;;;;;;;3.55;1.35;;;0.60;99.90;;;-0.36;100.00;97783.00;4968938;28;20135;-36
2024/01/22 02:10:16;;;;;;;4.93;1.50;;;0.70;99.90;;;-0.27;100.00;97784.84;4973077;28;20122;-36
2024/01/22 02:12:42;;;;;;;4.75;1.45;;;0.70;99.90;;;-0.21;100.00;97780.63;4969838;28;20042;-35
2024/01/22 02:15:08;;;;;;;4.05;1.55;;;0.80;99.90;;;-0.14;100.00;97781.56;4977129;28;20426;-37
2024/01/22 02:17:34;;;;;;;3.80;1.45;;;0.90;99.90;;;-0.02;100.00;97770.44;4970868;28;20041;-34
2024/01/22 02:20:00;;;;;;;6.72;1.60;;;1.00;99.90;;;-0.07;100.00;97760.03;4970424;28;20050;-34
2024/01/22 02:22:25;;;;;;;3.40;1.35;;;1.00;99.90;;;0.05;100.00;97779.16;4968321;28;20084;-35
2024/01/22 02:24:51;;;;;;;5.93;1.58;;;1.00;99.90;;;0.03;100.00;97771.38;4969957;28;20271;-35
2024/01/22 02:27:20;;;;;;;3.47;1.70;;;1.00;99.90;;;0.00;100.00;97776.56;4970492;28;20454;-36
2024/01/22 02:29:46;;;;;;;3.40;1.35;;;1.00;99.90;;;-0.04;100.00;97782.53;4970839;28;20759;-36
2024/01/22 02:32:12;;;;;;;2.80;1.42;;;1.00;99.90;;;-0.07;100.00;97792.84;4967186;28;20030;-37
2024/01/22 02:34:37;;;;;;;3.67;1.50;;;1.00;99.90;;;-0.07;100.00;97783.38;4973068;28;20057;-35
2024/01/22 02:37:03;;;;;;;2.63;1.40;;;0.90;99.90;;;-0.08;100.00;97778.16;4970223;28;20034;-35
2024/01/22 02:39:29;;;;;;;3.45;1.52;;;1.00;99.90;;;-0.08;100.00;97768.66;4964246;28;20034;-35
2024/01/22 02:41:55;;;;;;;4.72;1.65;;;1.00;99.90;;;-0.17;100.00;97754.75;4967552;28;20038;-35
2024/01/22 02:44:21;;;;;;;2.92;1.50;;;0.90;99.90;;;-0.18;100.00;97766.81;4974183;28;20049;-35
2024/01/22 02:46:47;;;;;;;3.67;1.45;;;0.90;99.90;;;-0.22;100.00;97760.72;4973496;28;20034;-35
2024/01/22 02:49:13;;;;;;;2.83;1.25;;;0.80;99.90;;;-0.26;100.00;97769.31;4974161;28;20434;-35
2024/01/22 02:51:43;;;;;;;3.30;1.50;;;0.80;99.90;;;-0.33;100.00;97746.78;4971260;28;20511;-35
2024/01/22 02:54:09;;;;;;;3.55;1.50;;;0.70;99.90;;;-0.37;100.00;97755.38;4973393;28;20121;-35
2024/01/22 02:56:34;;;;;;;3.20;1.42;;;0.60;99.90;;;-0.41;100.00;97754.47;4969737;28;20073;-35
2024/01/22 02:59:00;;;;;;;5.50;1.50;;;0.60;99.90;;;-0.43;100.00;97742.31;4968742;28;20534;-35
2024/01/22 03:01:26;;;;;;;2.35;1.50;;;0.60;99.90;;;-0.43;100.00;97752.69;4962070;28;20117;-36
2024/01/22 03:03:52;;;;;;;3.40;1.55;;;0.60;99.90;;;-0.45;100.00;97750.13;4930805;28;20038;-36
2024/01/22 03:06:18;;;;;;;2.67;1.70;;;0.60;99.90;;;-0.44;100.00;97748.38;4971160;28;20396;-36
2024/01/22 03:08:43;;;;;;;3.80;1.70;;;0.60;99.90;;;-0.48;100.00;97731.06;4963169;28;21476;-35
2024/01/22 03:11:09;;;;;;;3.22;1.60;;;0.60;99.90;;;-0.69;100.00;97698.00;4967063;28;20403;-36
2024/01/22 03:13:35;;;;;;;3.92;1.80;;;0.50;99.90;;;-0.52;100.00;97737.03;4966070;28;20031;-36
2024/01/22 03:16:01;;;;;;;3.58;1.88;;;0.60;99.90;;;-0.45;100.00;97738.84;4973380;28;20074;-36
2024/01/22 03:18:27;;;;;;;2.53;1.30;;;0.60;99.90;;;-0.37;100.00;97741.56;4975734;28;20029;-36
2024/01/22 03:20:53;;;;;;;1.92;1.35;;;0.70;99.90;;;-0.27;100.00;97727.84;4972429;28;20026;-36
2024/01/22 03:23:19;;;;;;;2.78;1.67;;;0.80;99.90;;;-0.17;100.00;97731.41;4966584;28;20129;-36
2024/01/22 03:25:45;;;;;;;2.10;1.35;;;0.80;99.90;;;-0.08;100.00;97721.13;4966118;28;20026;-36
2024/01/22 03:28:11;;;;;;;2.08;1.30;;;0.90;99.90;;;0.02;100.00;97710.00;4966307;28;20141;-36
2024/01/22 03:30:37;;;;;;;2.72;1.33;;;1.00;99.90;;;0.12;100.00;97710.94;4963469;28;20030;-36
2024/01/22 03:33:02;;;;;;;2.53;1.63;;;1.10;99.90;;;0.22;100.00;97697.22;4966090;28;20039;-36
2024/01/22 03:35:28;;;;;;;4.20;1.38;;;1.20;99.90;;;0.31;100.00;97694.69;4955451;28;20121;-35
2024/01/22 03:37:54;;;;;;;2.58;1.52;;;1.30;99.90;;;0.38;100.00;97695.63;4968066;28;20091;-36
2024/01/22 03:40:19;;;;;;;2.30;1.55;;;1.30;99.90;;;0.43;100.00;97704.31;4965823;28;20030;-36
2024/01/22 03:42:45;;;;;;;4.00;1.80;;;1.40;99.90;;;0.50;100.00;97702.63;4965139;28;20402;-36
2024/01/22 03:45:11;;;;;;;4.18;1.73;;;1.50;99.90;;;0.47;100.00;97680.13;4965586;28;20792;-36
2024/01/22 03:47:37;;;;;;;2.30;1.23;;;1.50;99.90;;;0.59;100.00;97694.03;4966648;28;20042;-35
2024/01/22 03:50:03;;;;;;;2.97;1.65;;;1.60;99.90;;;0.60;100.00;97688.88;4973943;28;20030;-36
2024/01/22 03:52:29;;;;;;;3.08;1.65;;;1.60;99.90;;;0.64;100.00;97677.63;4969096;28;20026;-36
2024/01/22 03:54:55;;;;;;;3.13;1.65;;;1.60;99.90;;;0.60;100.00;97670.69;4969486;28;20041;-36
2024/01/22 03:57:20;;;;;;;2.63;1.52;;;1.60;99.90;;;0.73;100.00;97685.47;4966905;28;20378;-36
2024/01/22 03:59:46;;;;;;;6.28;1.60;;;1.70;99.90;;;0.80;100.00;97689.00;4963347;28;20034;-35
2024/01/22 04:02:12;;;;;;;2.58;1.60;;;1.80;99.90;;;0.86;100.00;97675.19;4962346;28;20042;-36
2024/01/22 04:04:38;;;;;;;3.20;1.30;;;1.80;99.90;;;0.91;100.00;97681.28;4958845;28;20041;-36
2024/01/22 04:07:04;;;;;;;2.42;1.48;;;1.90;99.90;;;0.95;100.00;97680.41;4970040;28;20030;-36
2024/01/22 04:09:29;;;;;;;3.28;1.73;;;1.90;99.90;;;1.00;100.00;97677.84;4962202;28;20484;-36
2024/01/22 04:11:55;;;;;;;3.72;1.75;;;2.00;99.90;;;1.01;100.00;97674.41;4965091;28;20030;-36
2024/01/22 04:14:21;;;;;;;2.60;1.60;;;2.00;99.90;;;1.00;100.00;97670.94;4966989;28;20034;-36
2024/01/22 04:16:46;;;;;;;2.75;1.50;;;2.00;99.90;;;1.00;100.00;97675.25;4965112;28;20027;-36
2024/01/22 04:19:12;;;;;;;3.33;1.45;;;2.00;99.90;;;1.00;100.00;97675.25;4973264;28;20026;-36
2024/01/22 04:21:45;;;;;;;3.47;1.75;;;2.00;99.90;;;1.00;100.00;97672.66;4969329;28;20035;-36
2024/01/22 04:24:11;;;;;;;3.90;1.70;;;2.00;99.90;;;1.02;100.00;97655.34;4967448;28;20034;-36
2024/01/22 04:26:37;;;;;;;2.50;1.67;;;2.00;99.90;;;1.02;100.00;97647.56;4967700;28;20031;-36
2024/01/22 04:29:03;;;;;;;4.10;2.00;;;2.00;99.90;;;1.03;100.00;97651.91;4966794;28;20027;-36
2024/01/22 04:31:29;;;;;;;3.60;1.75;;;2.00;99.90;;;0.96;100.00;97625.03;4963861;28;20037;-36
2024/01/22 04:33:55;;;;;;;2.97;2.10;;;2.00;99.90;;;1.08;100.00;97638.09;4964278;28;20493;-35
2024/01/22 04:36:21;;;;;;;3.50;1.40;;;2.00;99.90;;;1.07;100.00;97632.88;4971619;28;20117;-35
2024/01/22 04:38:46;;;;;;;3.22;1.80;;;2.00;99.90;;;1.09;100.00;97641.53;4964167;28;20113;-36
2024/01/22 04:41:12;;;;;;;3.28;1.75;;;2.00;99.90;;;1.11;100.00;97639.81;4964739;28;20080;-36
2024/01/22 04:43:39;;;;;;;3.88;1.80;;;2.10;99.90;;;1.10;100.00;97641.53;4962039;28;20468;-36
2024/01/22 04:46:06;;;;;;;2.75;1.58;;;2.10;99.90;;;1.09;100.00;97636.34;4965493;28;20077;-36
2024/01/22 04:48:32;;;;;;;4.25;1.77;;;2.10;99.90;;;1.08;100.00;97632.88;4971536;28;20057;-35
2024/01/22 04:50:57;;;;;;;4.68;2.22;;;2.10;99.90;;;1.06;100.00;97621.63;4971944;28;20065;-36
2024/01/22 04:53:23;;;;;;;3.47;1.90;;;2.00;99.90;;;1.08;100.00;97621.63;4969913;28;21026;-36
2024/01/22 04:55:49;;;;;;;3.88;2.28;;;2.10;99.90;;;1.12;100.00;97633.75;4967390;28;20114;-35
2024/01/22 04:58:14;;;;;;;2.72;1.65;;;2.10;99.90;;;1.17;100.00;97634.66;4971529;28;20065;-36
2024/01/22 05:00:40;;;;;;;4.47;2.15;;;2.10;99.90;;;1.22;100.00;97630.34;4962697;28;20045;-36
2024/01/22 05:03:06;;;;;;;3.60;2.20;;;2.20;99.90;;;1.19;100.00;97614.75;4960438;28;20569;-35
2024/01/22 05:05:32;;;;;;;3.45;1.75;;;2.20;99.90;;;1.25;100.00;97621.69;4961768;28;20076;-36
2024/01/22 05:07:58;;;;;;;3.47;2.03;;;2.20;99.90;;;1.25;100.00;97619.94;4964968;28;20057;-36
2024/01/22 05:10:24;;;;;;;3.97;2.10;;;2.20;99.90;;;1.25;100.00;97609.56;4967650;28;22284;-36
2024/01/22 05:12:49;;;;;;;4.00;1.92;;;2.20;99.90;;;1.26;100.00;97608.72;4970354;28;20073;-36
2024/01/22 05:15:15;;;;;;;3.72;1.90;;;2.20;99.90;;;1.25;100.00;97598.31;4956224;28;20636;-36
2024/01/22 05:17:41;;;;;;;3.83;1.92;;;2.30;99.90;;;1.32;100.00;97600.91;4971638;28;20034;-34
2024/01/22 05:20:08;;;;;;;4.38;1.85;;;2.30;99.90;;;1.31;100.00;97588.81;4949019;28;20430;-34
2024/01/22 05:22:35;;;;;;;2.70;1.73;;;2.30;99.90;;;1.33;100.00;97584.47;4952127;28;20089;-34
2024/01/22 05:25:00;;;;;;;2.58;1.50;;;2.40;99.90;;;1.47;100.00;97607.91;4958003;28;20088;-34
2024/01/22 05:27:26;;;;;;;2.95;1.75;;;2.40;99.90;;;1.52;100.00;97606.16;4966951;28;20438;-36
2024/01/22 05:29:52;;;;;;;2.47;1.63;;;2.50;99.90;;;1.55;100.00;97602.72;4959954;28;20360;-37
2024/01/22 05:32:18;;;;;;;3.88;1.92;;;2.50;99.90;;;1.60;100.00;97610.50;4963528;28;20126;-36
2024/01/22 05:34:43;;;;;;;2.35;1.52;;;2.50;99.90;;;1.51;100.00;97581.03;4966136;28;20026;-36
2024/01/22 05:37:09;;;;;;;2.40;1.70;;;2.60;99.90;;;1.67;100.00;97607.06;4969746;28;20403;-36
2024/01/22 05:39:36;;;;;;;4.20;1.67;;;2.60;99.90;;;1.69;100.00;97601.00;4964509;28;20032;-36
2024/01/22 05:42:03;;;;;;;4.03;1.67;;;2.60;99.90;;;1.76;100.00;97593.19;4968172;28;20066;-36
2024/01/22 05:44:29;;;;;;;4.65;1.73;;;2.70;99.90;;;1.80;100.00;97593.22;4968611;28;20041;-36
2024/01/22 05:46:55;;;;;;;2.30;1.50;;;2.70;99.90;;;1.80;100.00;97575.00;4967341;28;20038;-36
2024/01/22 05:49:20;;;;;;;2.83;1.65;;;2.80;99.90;;;1.93;100.00;97562.88;4972169;28;20038;-36
2024/01/22 05:51:47;;;;;;;3.63;1.40;;;2.90;99.90;;;1.92;100.00;97548.16;4966744;28;20033;-36
2024/01/22 05:54:14;;;;;;;5.57;1.48;;;2.90;99.90;;;2.03;100.00;97549.00;4972566;28;20030;-36
2024/01/22 05:56:39;;;;;;;2.70;1.48;;;3.00;99.90;;;2.13;100.00;97556.81;4968641;28;20038;-36
2024/01/22 05:59:05;;;;;;;1.85;1.45;;;3.00;99.90;;;2.18;100.00;97549.88;4968111;28;20364;-36
2024/01/22 06:01:31;;;;;;;3.17;1.60;;;3.10;99.90;;;2.22;100.00;97559.38;4969242;28;20030;-35
2024/01/22 06:03:57;;;;;;;2.00;1.38;;;3.10;99.90;;;2.26;100.00;97550.69;4948342;28;20114;-35
2024/01/22 06:06:23;;;;;;;3.15;1.52;;;3.20;99.90;;;2.28;100.00;97560.25;4961091;28;20042;-35
2024/01/22 06:08:49;;;;;;;2.40;1.40;;;3.20;99.90;;;2.31;100.00;97554.16;4966353;28;20026;-36
2024/01/22 06:11:17;;;;;;;4.07;1.58;;;3.30;99.90;;;2.36;100.00;97548.97;4947909;28;20035;-35
2024/01/22 06:13:43;;;;;;;2.65;1.67;;;3.30;99.90;;;2.41;100.00;97540.28;4964280;28;20054;-35
2024/01/22 06:16:10;;;;;;;2.97;1.38;;;3.30;99.90;;;2.50;100.00;97538.53;4961791;28;20110;-36
2024/01/22 06:18:38;;;;;;;2.05;1.30;;;3.40;99.90;;;2.61;100.00;97534.16;4963787;28;20557;-35
2024/01/22 06:21:04;;;;;;;4.10;1.67;;;3.50;99.90;;;2.70;100.00;97534.13;4964311;28;20121;-35
2024/01/22 06:23:31;;;;;;;3.13;1.58;;;3.60;99.90;;;2.77;100.00;97535.81;4968137;28;20573;-35
2024/01/22 06:25:57;;;;;;;3.42;1.55;;;3.70;99.90;;;2.84;100.00;97529.72;4966213;28;20637;-36
2024/01/22 06:28:25;;;;;;;5.18;2.10;;;3.70;99.90;;;2.82;100.00;97515.84;4961392;28;20117;-35
2024/01/22 06:30:51;;;;;;;3.42;1.55;;;3.80;99.90;;;2.87;100.00;97513.19;4960240;28;20317;-36
2024/01/22 06:33:18;;;;;;;2.60;1.70;;;3.80;99.90;;;2.99;100.00;97522.69;4968431;28;20038;-36
2024/01/22 06:35:45;;;;;;;2.25;1.40;;;3.90;99.90;;;3.00;100.00;97534.88;4971174;28;20028;-36
2024/01/22 06:38:11;;;;;;;3.22;1.63;;;3.90;99.90;;;3.04;100.00;97528.75;4968005;28;20109;-36
2024/01/22 06:40:37;;;;;;;2.38;1.33;;;3.90;99.90;;;3.03;100.00;97525.28;4968454;28;20046;-35
2024/01/22 06:43:03;;;;;;;2.03;1.50;;;4.00;99.90;;;3.04;100.00;97524.41;4967315;28;20043;-36
2024/01/22 06:45:29;;;;;;;3.67;1.50;;;3.90;99.90;;;3.05;100.00;97520.06;4968522;28;20406;-36
2024/01/22 06:47:55;;;;;;;3.05;1.60;;;4.00;99.90;;;3.11;100.00;97525.25;4974406;28;20034;-36
2024/01/22 06:50:22;;;;;;;3.25;1.73;;;4.00;99.90;;;3.13;100.00;97515.69;4975937;28;20994;-36
2024/01/22 06:52:48;;;;;;;4.28;1.63;;;4.10;99.90;;;3.17;100.00;97516.53;4968706;28;20092;-36
2024/01/22 06:55:15;;;;;;;1.83;1.23;;;4.10;99.90;;;3.27;100.00;97517.31;4973633;28;20471;-36
2024/01/22 06:57:41;;;;;;;3.78;1.52;;;4.10;99.90;;;3.29;100.00;97521.69;4967245;28;20038;-36
2024/01/22 07:00:08;;;;;;;4.40;1.42;;;4.20;99.90;;;3.31;100.00;97524.28;4964763;28;20038;-35
2024/01/22 07:02:35;;;;;;;2.95;1.50;;;4.20;99.90;;;3.33;100.00;97522.53;4963835;28;20085;-36
2024/01/22 07:05:01;;;;;;;3.58;1.58;;;4.20;99.90;;;3.28;100.00;97504.28;4968890;28;20048;-36
2024/01/22 07:07:27;;;;;;;4.25;1.60;;;4.20;99.90;;;3.31;100.00;97500.81;4969821;28;20031;-35
2024/01/22 07:09:53;;;;;;;3.28;1.80;;;4.20;99.90;;;3.29;100.00;97497.34;4966438;28;20459;-35
2024/01/22 07:12:20;;;;;;;4.70;1.80;;;4.20;99.90;;;3.27;100.00;97499.97;4975046;28;20034;-36
2024/01/22 07:14:46;;;;;;;4.35;1.80;;;4.20;99.90;;;3.29;100.00;97511.25;4955792;28;20053;-36
2024/01/22 07:17:15;;;;;;;5.97;1.88;;;4.20;99.90;;;3.32;100.00;97519.06;4965587;28;20030;-36
2024/01/22 07:19:41;;;;;;;4.18;1.60;;;4.20;99.90;;;3.34;100.00;97521.63;4965082;28;20411;-34
2024/01/22 07:22:07;;;;;;;2.17;1.33;;;4.20;99.90;;;3.35;100.00;97536.41;4965974;28;20041;-34
2024/01/22 07:24:33;;;;;;;3.63;1.25;;;4.20;99.90;;;3.36;100.00;97538.16;4971326;28;20106;-35
2024/01/22 07:26:58;;;;;;;2.88;1.52;;;4.20;99.90;;;3.42;100.00;97540.72;4969506;28;20147;-36
2024/01/22 07:29:24;;;;;;;2.80;1.17;;;4.30;99.90;;;3.47;100.00;97533.72;4968035;28;20042;-36
2024/01/22 07:31:50;;;;;;;2.15;1.30;;;4.30;99.90;;;3.41;100.00;97510.28;4967211;28;20564;-36
2024/01/22 07:34:16;;;;;;;1.70;1.27;;;4.30;99.90;;;3.44;100.00;97492.03;4967922;28;20038;-36
2024/01/22 07:36:42;;;;;;;2.63;1.40;;;4.40;99.90;;;3.53;100.00;97501.53;4969921;28;20112;-36
2024/01/22 07:39:08;;;;;;;1.05;0.82;;;4.40;99.90;;;3.55;100.00;97491.94;4966259;28;20732;-36
2024/01/22 07:41:36;;;;;;;2.67;1.30;;;4.40;99.90;;;3.60;100.00;97491.03;4966503;28;20854;-36
2024/01/22 07:44:02;;;;;;;3.22;1.58;;;4.50;99.90;;;3.65;100.00;97477.09;4964374;28;20058;-35
2024/01/22 07:46:29;;;;;;;2.47;1.42;;;4.50;99.90;;;3.61;100.00;97466.69;4966763;28;20030;-35
2024/01/22 07:48:55;;;;;;;3.80;1.50;;;4.50;99.90;;;3.71;100.00;97462.25;4967536;28;20061;-35
2024/01/22 07:51:21;;;;;;;2.13;1.20;;;4.60;99.90;;;3.65;100.00;97436.22;4965259;28;20037;-35
2024/01/22 07:53:47;;;;;;;2.25;1.42;;;4.60;99.90;;;3.71;100.00;97422.25;4968941;28;20255;-35
2024/01/22 07:56:12;;;;;;;2.40;1.23;;;4.60;99.90;;;3.86;100.00;97423.84;4977080;28;20113;-35
2024/01/22 07:58:39;;;;;;;3.13;1.27;;;4.70;99.90;;;3.94;100.00;97428.13;4977714;28;20030;-36
2024/01/22 08:01:06;;;;;;;2.50;1.02;;;4.80;99.90;;;4.00;100.00;97412.41;4960161;28;20030;-36
2024/01/22 08:03:31;;;;;;;2.03;1.00;;;4.90;99.90;;;3.96;100.00;97404.63;4979307;28;20088;-35
2024/01/22 08:05:58;;;;;;;3.60;1.13;;;4.90;99.90;;;4.14;100.00;97430.50;4975012;28;20042;-36
2024/01/22 08:08:27;;;;;;;3.17;1.30;;;5.00;99.90;;;4.16;100.00;97427.88;4972826;28;20566;-36
2024/01/22 08:10:54;;;;;;;1.50;1.00;;;5.00;99.90;;;4.10;100.00;97421.00;4968975;28;20266;-36
2024/01/22 08:13:20;;;;;;;2.08;1.00;;;5.00;99.90;;;4.27;100.00;97431.25;4973713;28;20034;-34
2024/01/22 08:15:47;;;;;;;2.20;1.00;;;5.10;99.90;;;4.31;100.00;97411.22;4974988;28;20019;-36
2024/01/22 08:18:13;;;;;;;1.42;0.82;;;5.20;99.90;;;4.47;100.00;97422.31;4974884;28;20019;-36
2024/01/22 08:20:40;;;;;;;1.95;0.80;;;5.30;99.90;;;4.51;100.00;97410.97;4973325;28;20058;-35
2024/01/22 08:23:06;;;;;;;4.13;1.00;;;5.40;99.90;;;4.72;100.00;97423.75;4972601;28;20522;-35
2024/01/22 08:25:33;;;;;;;1.58;0.88;;;5.50;99.90;;;4.72;100.00;97410.69;4972997;28;20113;-35
2024/01/22 08:27:59;;;;;;;3.00;1.00;;;5.60;99.90;;;4.94;100.00;97433.91;4971994;28;20034;-35
2024/01/22 08:30:26;;;;;;;2.40;0.90;;;5.70;99.90;;;5.03;100.00;97427.69;4986679;23;20038;-36
2024/01/22 08:32:51;;;;;;;2.58;1.17;;;5.80;99.90;;;5.08;100.00;97442.41;4954969;28;20035;-35
2024/01/22 08:35:21;;;;;;;1.90;1.10;;;5.90;99.90;;;5.18;100.00;97426.59;4956597;28;20033;-36
2024/01/22 08:37:52;;;;;;;1.70;0.77;;;6.00;99.90;;;5.23;100.00;97428.25;4956227;28;20022;-36
2024/01/22 08:40:22;;;;;;;1.23;0.73;;;6.10;99.90;;;5.40;100.00;97433.22;4958883;28;20057;-36
2024/01/22 08:42:53;;;;;;;0.80;0.55;;;6.20;99.90;;;5.58;100.00;97416.38;4954558;28;20483;-36
2024/01/22 08:45:21;;;;;;;1.25;0.63;;;6.40;99.90;;;5.85;100.00;97422.88;4956585;28;20383;-36
2024/01/22 08:47:48;;;;;;;0.95;0.57;;;6.60;99.90;;;6.15;100.00;97422.34;4958053;28;20062;-36
2024/01/22 08:50:18;;;;;;;2.38;0.70;;;6.80;99.90;;;6.32;100.00;97409.81;4955256;28;20129;-36
2024/01/22 08:52:46;;;;;;;0.93;0.40;;;7.10;99.90;;;6.53;100.00;97416.34;4957008;28;20039;-36
2024/01/22 08:55:11;;;;;;;1.27;0.50;;;7.30;99.90;;;6.81;100.00;97390.44;4958467;28;20403;-36
2024/01/22 08:57:39;;;;;;;1.30;0.47;;;7.50;99.90;;;6.89;100.00;97395.50;4957023;28;20034;-36
2024/01/22 09:00:10;;;;;;;0.80;0.50;;;7.70;99.90;;;7.15;100.00;97402.78;4954692;28;20038;-36
2024/01/22 09:02:37;;;;;;;1.90;0.47;;;7.90;99.90;;;7.36;100.00;97416.31;4956909;28;20042;-35
2024/01/22 09:05:03;;;;;;;2.58;0.50;;;8.10;99.90;;;7.56;100.00;97397.44;4958135;28;20804;-35
2024/01/22 09:07:29;;;;;;;1.27;0.60;;;8.30;99.90;;;7.80;100.00;97402.06;4957069;28;20111;-35
2024/01/22 09:09:56;;;;;;;0.88;0.50;;;8.50;99.90;;;8.01;100.00;97402.41;4953436;28;20780;-34
2024/01/22 09:12:22;;;;;;;2.35;0.70;;;8.60;99.90;;;8.14;100.00;97422.19;4956914;28;20310;-34
2024/01/22 09:14:48;;;;;;;0.50;0.40;;;8.80;99.90;;;8.24;100.00;97404.41;4958081;28;20023;-35
2024/01/22 09:17:13;;;;;;;2.50;1.00;;;8.90;99.90;;;8.44;100.00;97403.88;4956130;28;20046;-35
2024/01/22 09:19:39;;;;;;;1.50;0.75;;;9.10;99.90;;;8.49;100.00;97399.38;4957292;28;20480;-35
2024/01/22 09:22:05;;;;;;;0.47;0.47;;;9.20;99.90;;;8.64;100.00;97408.56;4952038;28;20038;-35
2024/01/22 09:24:30;;;;;;;0.80;0.30;;;9.30;99.90;;;8.74;100.00;97401.25;4956559;28;20034;-34
2024/01/22 09:26:56;;;;;;;1.17;0.57;;;9.40;99.90;;;8.86;100.00;97393.00;4954106;28;20236;-35
2024/01/22 09:29:22;;;;;;;1.33;0.40;;;9.50;99.90;;;8.94;100.00;97396.28;4959166;28;20019;-35
2024/01/22 09:31:48;;;;;;;0.40;0.30;;;9.60;99.90;;;9.02;100.00;97403.06;4952925;28;20053;-35
2024/01/22 09:34:13;;;;;;;0.70;0.40;;;9.70;99.90;;;9.14;100.00;97410.59;4954604;28;20089;-35
2024/01/22 09:36:39;;;;;;;2.38;0.30;;;9.80;99.90;;;9.22;100.00;97405.94;4959365;28;20043;-35
2024/01/22 09:39:07;;;;;;;0.80;0.30;;;9.90;99.90;;;9.31;100.00;97412.69;4957889;28;20531;-34
2024/01/22 09:41:33;;;;;;;1.88;0.40;;;10.00;99.90;;;9.40;100.00;97408.91;4951888;28;20741;-34
2024/01/22 09:43:59;;;;;;;1.67;0.50;;;10.10;99.90;;;9.29;100.00;97370.63;4951567;28;20042;-35
2024/01/22 09:46:27;;;;;;;1.38;0.55;;;10.10;99.90;;;9.38;100.00;97400.19;4954700;28;20057;-36
2024/01/22 09:48:53;;;;;;;0.73;0.40;;;10.10;99.90;;;9.49;100.00;97391.06;4955839;28;20125;-35
2024/01/22 09:51:20;;;;;;;0.85;0.57;;;10.10;99.90;;;9.52;100.00;97390.94;4952793;28;20042;-36
2024/01/22 09:53:47;;;;;;;0.28;0.28;;;10.20;99.90;;;9.61;100.00;97402.94;4959636;28;20042;-35
2024/01/22 09:56:19;;;;;;;1.30;0.40;;;10.30;99.90;;;9.73;100.00;97399.91;4954118;28;20543;-36
2024/01/22 09:58:46;;;;;;;0.50;0.28;;;10.40;99.90;;;9.82;100.00;97397.88;4955938;28;20110;-35
2024/01/22 10:01:12;;;;;;;0.73;0.40;;;10.50;99.90;;;9.97;100.00;97397.34;4956080;28;20018;-36
2024/01/22 10:03:39;;;;;;;1.02;0.28;;;10.60;99.90;;;10.01;100.00;97383.13;4955894;28;20061;-36
2024/01/22 10:06:05;;;;;;;1.35;0.50;;;10.70;99.90;;;10.14;100.00;97365.16;4953981;28;20051;-36
2024/01/22 10:08:31;;;;;;;1.70;0.50;;;10.80;99.90;;;10.07;100.00;97375.03;4956352;28;20119;-35
2024/01/22 10:10:57;;;;;;;0.55;0.38;;;10.80;99.90;;;10.07;100.00;97368.91;4954675;28;20035;-35
2024/01/22 10:13:23;;;;;;;1.58;0.57;;;10.80;99.90;;;10.12;100.00;97370.47;4950577;28;20046;-36
2024/01/22 10:15:49;;;;;;;0.60;0.40;;;10.80;99.90;;;10.12;100.00;97359.94;4956412;28;20038;-35
2024/01/22 10:18:18;;;;;;;1.17;0.30;;;10.80;99.90;;;10.12;100.00;97364.31;4955156;28;20039;-35
2024/01/22 10:20:46;;;;;;;1.88;0.40;;;10.90;99.90;;;10.15;100.00;97352.81;4959844;28;20038;-35